createdAt,value
2022-09-09T00:02:02.629Z,99959.59
2022-09-09T00:04:32.932Z,99953.00
2022-09-09T00:07:06.713Z,99961.22
2022-09-09T00:09:42.708Z,99946.41
2022-09-09T00:12:14.390Z,99956.00
2022-09-09T00:14:52.974Z,99955.75
2022-09-09T00:17:41.707Z,99952.16
2022-09-09T00:20:16.575Z,99947.22
2022-09-09T00:22:53.120Z,99960.09
2022-09-09T00:25:29.484Z,99967.19
2022-09-09T00:27:58.284Z,99956.72
2022-09-09T00:30:29.546Z,99963.34
2022-09-09T00:33:01.613Z,99956.72
2022-09-09T00:35:33.317Z,99954.78
2022-09-09T00:38:05.271Z,99954.22
2022-09-09T00:40:35.298Z,99952.56
2022-09-09T00:43:21.953Z,99950.34
2022-09-09T00:46:13.541Z,99957.47
2022-09-09T00:48:51.965Z,99963.53
2022-09-09T00:51:27.704Z,99958.53
2022-09-09T00:54:09.946Z,99958.81
2022-09-09T00:56:44.640Z,99961.25
2022-09-09T00:59:28.313Z,99968.91
2022-09-09T01:01:58.221Z,99964.50
2022-09-09T01:04:31.858Z,99965.34
2022-09-09T01:07:07.000Z,99959.03
2022-09-09T01:09:44.755Z,99957.38
2022-09-09T01:12:17.693Z,99957.13
2022-09-09T01:14:49.902Z,99958.53
2022-09-09T01:17:24.169Z,99947.25
2022-09-09T01:20:03.489Z,99953.03
2022-09-09T01:22:38.035Z,99957.13
2022-09-09T01:25:22.734Z,99961.78
2022-09-09T01:27:54.372Z,99954.63
2022-09-09T01:30:23.109Z,99954.59
2022-09-09T01:32:52.374Z,99948.53
2022-09-09T01:35:33.765Z,99957.00
2022-09-09T01:38:02.047Z,99952.50
2022-09-09T01:40:29.909Z,99944.28
2022-09-09T01:42:59.406Z,99954.94
2022-09-09T01:45:27.656Z,99946.38
2022-09-09T01:47:55.444Z,99946.69
2022-09-09T01:50:23.469Z,99957.66
2022-09-09T01:52:54.970Z,99958.41
2022-09-09T01:55:35.118Z,99950.19
2022-09-09T01:58:22.492Z,99948.53
2022-09-09T02:01:00.250Z,99939.16
2022-09-09T02:03:30.294Z,99940.47
2022-09-09T02:06:07.534Z,99944.56
2022-09-09T02:08:44.280Z,99950.84
2022-09-09T02:11:16.146Z,99942.91
2022-09-09T02:13:47.355Z,99954.69
2022-09-09T02:16:21.408Z,99946.22
2022-09-09T02:18:53.036Z,99955.13
2022-09-09T02:21:22.781Z,99948.81
2022-09-09T02:23:52.993Z,99957.94
2022-09-09T02:26:24.369Z,99968.06
2022-09-09T02:28:57.715Z,99963.41
2022-09-09T02:31:27.143Z,99962.34
2022-09-09T02:33:59.538Z,99972.03
2022-09-09T02:36:31.274Z,99959.66
2022-09-09T02:38:59.388Z,99967.09
2022-09-09T02:41:33.699Z,99965.16
2022-09-09T02:44:03.549Z,99965.78
2022-09-09T02:46:49.671Z,99972.94
2022-09-09T02:49:25.229Z,99967.19
2022-09-09T02:52:03.112Z,99951.06
2022-09-09T02:54:32.850Z,99961.50
2022-09-09T02:57:05.794Z,99958.47
2022-09-09T02:59:35.701Z,99961.22
2022-09-09T03:02:03.753Z,99973.84
2022-09-09T03:04:32.072Z,99968.41
2022-09-09T03:07:00.570Z,99969.22
2022-09-09T03:09:28.471Z,99964.31
2022-09-09T03:11:57.054Z,99960.72
2022-09-09T03:14:26.063Z,99958.00
2022-09-09T03:16:57.321Z,99958.00
2022-09-09T03:19:25.545Z,99956.06
2022-09-09T03:21:53.643Z,99958.81
2022-09-09T03:24:22.411Z,99952.78
2022-09-09T03:26:51.546Z,99936.91
2022-09-09T03:29:19.852Z,99944.00
2022-09-09T03:31:47.776Z,99927.50
2022-09-09T03:34:16.945Z,99942.06
2022-09-09T03:36:44.704Z,99939.84
2022-09-09T03:39:12.458Z,99951.69
2022-09-09T03:41:40.238Z,99956.03
2022-09-09T03:44:08.067Z,99956.06
2022-09-09T03:46:35.875Z,99957.69
2022-09-09T03:49:03.613Z,99946.16
2022-09-09T03:51:32.918Z,99954.91
2022-09-09T03:54:01.777Z,99957.38
2022-09-09T03:56:29.635Z,99954.91
2022-09-09T03:58:58.499Z,99939.81
2022-09-09T04:01:26.292Z,99934.88
2022-09-09T04:03:54.098Z,99944.72
2022-09-09T04:06:22.302Z,99942.75
2022-09-09T04:08:53.150Z,99929.88
2022-09-09T04:11:21.311Z,99943.63
2022-09-09T04:13:50.235Z,99933.69
2022-09-09T04:16:18.242Z,99942.47
2022-09-09T04:18:46.200Z,99944.09
2022-09-09T04:21:14.142Z,99938.31
2022-09-09T04:23:42.123Z,99939.16
2022-09-09T04:26:11.489Z,99941.34
2022-09-09T04:28:39.305Z,99944.03
2022-09-09T04:31:08.699Z,99938.22
2022-09-09T04:33:40.094Z,99940.47
2022-09-09T04:36:09.331Z,99948.44
2022-09-09T04:38:37.807Z,99932.91
2022-09-09T04:41:06.381Z,99938.31
2022-09-09T04:43:35.918Z,99942.47
2022-09-09T04:46:03.789Z,99943.31
2022-09-09T04:48:32.101Z,99927.66
2022-09-09T04:51:02.181Z,99937.25
2022-09-09T04:53:30.474Z,99927.19
2022-09-09T04:56:04.273Z,99935.66
2022-09-09T04:58:32.536Z,99940.56
2022-09-09T05:01:10.118Z,99943.31
2022-09-09T05:03:38.526Z,99935.66
2022-09-09T05:06:09.236Z,99946.88
2022-09-09T05:08:37.948Z,99939.25
2022-09-09T05:11:06.164Z,99954.91
2022-09-09T05:13:36.426Z,99943.41
2022-09-09T05:16:12.304Z,99950.00
2022-09-09T05:18:40.477Z,99959.03
2022-09-09T05:21:09.380Z,99967.56
2022-09-09T05:23:37.810Z,99973.38
2022-09-09T05:26:06.750Z,99956.38
2022-09-09T05:28:36.766Z,99973.66
2022-09-09T05:31:08.870Z,99979.16
2022-09-09T05:33:38.659Z,99990.41
2022-09-09T05:36:08.957Z,99986.56
2022-09-09T05:38:37.501Z,99993.09
2022-09-09T05:41:05.853Z,99985.16
2022-09-09T05:43:33.961Z,99996.16
2022-09-09T05:46:03.459Z,99994.84
2022-09-09T05:48:32.006Z,99986.31
2022-09-09T05:51:02.089Z,99996.78
2022-09-09T05:53:33.119Z,99998.94
2022-09-09T05:56:04.322Z,100011.56
2022-09-09T05:58:33.013Z,100004.13
2022-09-09T06:01:06.051Z,100003.88
2022-09-09T06:03:34.187Z,100008.81
2022-09-09T06:06:06.413Z,100019.22
2022-09-09T06:08:34.747Z,100011.84
2022-09-09T06:11:07.380Z,100015.19
2022-09-09T06:13:36.049Z,100015.97
2022-09-09T06:16:05.240Z,100016.00
2022-09-09T06:18:33.099Z,100010.84
2022-09-09T06:21:05.263Z,100017.47
2022-09-09T06:23:33.362Z,100006.13
2022-09-09T06:26:06.966Z,100013.63
2022-09-09T06:28:35.027Z,100013.91
2022-09-09T06:31:05.178Z,100017.19
2022-09-09T06:33:35.728Z,100004.81
2022-09-09T06:36:06.011Z,100014.22
2022-09-09T06:38:33.906Z,100000.72
2022-09-09T06:41:02.942Z,99987.31
2022-09-09T06:43:31.322Z,100001.31
2022-09-09T06:46:01.010Z,100006.53
2022-09-09T06:48:29.651Z,99993.63
2022-09-09T06:51:07.068Z,100000.75
2022-09-09T06:53:36.299Z,100005.72
2022-09-09T06:56:18.820Z,100013.13
2022-09-09T06:58:47.678Z,100011.22
2022-09-09T07:01:17.752Z,100019.19
2022-09-09T07:03:51.246Z,100000.16
2022-09-09T07:06:22.316Z,100017.50
2022-09-09T07:08:56.835Z,100005.63
2022-09-09T07:11:27.928Z,100008.09
2022-09-09T07:13:56.660Z,100005.16
2022-09-09T07:16:25.687Z,100010.09
2022-09-09T07:18:58.502Z,100009.75
2022-09-09T07:21:29.918Z,100017.47
2022-09-09T07:23:58.494Z,100015.81
2022-09-09T07:26:28.460Z,100021.53
2022-09-09T07:28:58.077Z,100022.97
2022-09-09T07:31:30.943Z,100032.34
2022-09-09T07:34:00.580Z,100025.44
2022-09-09T07:36:33.389Z,100031.00
2022-09-09T07:39:04.063Z,100022.72
2022-09-09T07:41:35.377Z,100021.31
2022-09-09T07:44:07.847Z,100027.28
2022-09-09T07:46:36.675Z,100031.22
2022-09-09T07:49:05.055Z,100029.88
2022-09-09T07:51:37.016Z,100025.97
2022-09-09T07:54:08.593Z,100028.47
2022-09-09T07:56:36.522Z,100034.53
2022-09-09T07:59:07.157Z,100048.81
2022-09-09T08:01:39.901Z,100044.97
2022-09-09T08:04:09.840Z,100055.97
2022-09-09T08:06:41.340Z,100055.19
2022-09-09T08:09:11.029Z,100065.84
2022-09-09T08:11:40.306Z,100056.50
2022-09-09T08:14:09.728Z,100065.34
2022-09-09T08:16:40.176Z,100066.44
2022-09-09T08:19:09.054Z,100058.44
2022-09-09T08:21:41.140Z,100060.63
2022-09-09T08:24:11.417Z,100051.47
2022-09-09T08:26:40.526Z,100064.50
2022-09-09T08:29:11.140Z,100064.84
2022-09-09T08:31:40.891Z,100055.53
2022-09-09T08:34:10.040Z,100064.81
2022-09-09T08:36:41.535Z,100068.19
2022-09-09T08:39:10.504Z,100058.69
2022-09-09T08:42:14.622Z,100063.22
2022-09-09T08:44:57.576Z,100072.00
2022-09-09T08:47:37.029Z,100048.09
2022-09-09T08:50:20.743Z,100066.56
2022-09-09T08:52:58.337Z,100063.81
2022-09-09T08:55:39.736Z,100059.19
2022-09-09T08:58:14.978Z,100062.22
2022-09-09T09:00:52.680Z,100056.78
2022-09-09T09:03:30.161Z,100052.50
2022-09-09T09:06:06.973Z,100049.22
2022-09-09T09:08:46.379Z,100031.16
2022-09-09T09:11:14.903Z,100031.28
2022-09-09T09:13:49.132Z,100029.94
2022-09-09T09:16:25.704Z,100037.53
2022-09-09T09:18:56.070Z,100032.72
2022-09-09T09:21:40.069Z,100027.78
2022-09-09T09:24:21.278Z,100040.88
2022-09-09T09:26:49.740Z,100035.84
2022-09-09T09:29:20.739Z,100042.09
2022-09-09T09:31:53.388Z,100039.63
2022-09-09T09:34:21.187Z,100036.88
2022-09-09T09:36:58.124Z,100054.69
2022-09-09T09:42:21.768Z,100042.19
2022-09-09T09:44:51.938Z,100042.19
2022-09-09T09:47:21.960Z,100047.03
2022-09-09T09:49:57.505Z,100043.00
2022-09-09T09:52:28.023Z,100037.16
2022-09-09T09:55:01.844Z,100041.34
2022-09-09T09:57:35.202Z,100046.75
2022-09-09T10:00:14.236Z,100036.50
2022-09-09T10:02:45.045Z,100050.94
2022-09-09T10:05:17.808Z,100035.22
2022-09-09T10:07:47.075Z,100047.94
2022-09-09T10:10:22.626Z,100041.28
2022-09-09T10:13:01.861Z,100035.72
2022-09-09T10:15:41.546Z,100026.59
2022-09-09T10:18:37.315Z,100032.72
2022-09-09T10:21:17.341Z,100001.47
2022-09-09T10:24:01.444Z,100021.31
2022-09-09T10:26:41.860Z,100010.88
2022-09-09T10:29:45.880Z,100006.19
2022-09-09T10:32:34.649Z,100011.31
2022-09-09T10:35:12.374Z,100005.44
2022-09-09T10:38:20.116Z,100008.63
2022-09-09T10:41:11.653Z,100006.56
2022-09-09T10:44:00.169Z,100002.69
2022-09-09T10:46:39.643Z,100010.56
2022-09-09T10:49:22.804Z,99990.13
2022-09-09T10:51:59.933Z,99975.28
2022-09-09T10:54:43.565Z,99996.84
2022-09-09T10:57:17.723Z,99989.19
2022-09-09T10:59:50.982Z,99986.06
2022-09-09T11:02:26.765Z,100000.75
2022-09-09T11:04:59.868Z,99985.28
2022-09-09T11:07:34.980Z,100008.34
2022-09-09T11:10:08.643Z,100010.19
2022-09-09T11:12:41.355Z,100005.47
2022-09-09T11:15:18.985Z,99983.84
2022-09-09T11:17:51.471Z,100003.47
2022-09-09T11:20:19.374Z,99989.44
2022-09-09T11:22:54.099Z,100003.69
2022-09-09T11:25:27.750Z,100007.06
2022-09-09T11:28:13.396Z,99997.06
2022-09-09T11:30:56.997Z,100006.16
2022-09-09T11:33:51.050Z,100005.63
2022-09-09T11:36:36.941Z,100002.94
2022-09-09T11:39:19.484Z,100000.09
2022-09-09T11:41:47.426Z,100008.34
2022-09-09T11:44:21.372Z,99982.28
2022-09-09T11:46:53.432Z,99983.66
2022-09-09T11:49:29.412Z,99993.75
2022-09-09T11:51:57.322Z,99971.59
2022-09-09T11:54:32.190Z,99979.81
2022-09-09T11:57:00.524Z,99976.34
2022-09-09T11:59:29.984Z,99970.13
2022-09-09T12:02:01.900Z,99979.63
2022-09-09T12:04:34.236Z,99987.50
2022-09-09T12:07:04.691Z,99995.25
2022-09-09T12:09:45.820Z,99987.59
2022-09-09T12:12:30.315Z,100002.88
2022-09-09T12:15:04.901Z,99988.16
2022-09-09T12:17:43.711Z,99997.88
2022-09-09T12:20:16.169Z,99994.81
2022-09-09T12:23:04.385Z,99985.28
2022-09-09T12:25:38.957Z,99972.38
2022-09-09T12:28:13.153Z,99973.56
2022-09-09T12:30:50.240Z,99972.81
2022-09-09T12:33:21.253Z,99969.38
2022-09-09T12:35:56.180Z,99967.25
2022-09-09T12:38:32.540Z,99968.91
2022-09-09T12:41:01.484Z,99971.47
2022-09-09T12:43:30.834Z,99969.88
2022-09-09T12:46:01.990Z,99970.41
2022-09-09T12:48:36.103Z,99969.66
2022-09-09T12:51:06.204Z,99986.00
2022-09-09T12:53:37.451Z,100004.47
2022-09-09T12:56:08.889Z,100068.50
2022-09-09T12:58:39.560Z,100038.47
2022-09-09T13:01:09.183Z,100020.47
2022-09-09T13:03:46.608Z,100013.59
2022-09-09T13:06:19.731Z,100026.56
2022-09-09T13:08:47.560Z,100015.94
2022-09-09T13:11:18.438Z,100018.44
2022-09-09T13:13:53.824Z,100022.16
2022-09-09T13:16:23.914Z,100012.03
2022-09-09T13:18:53.692Z,100001.88
2022-09-09T13:21:21.928Z,99997.75
2022-09-09T13:23:54.046Z,100010.38
2022-09-09T13:26:25.024Z,100013.94
2022-09-09T13:28:53.919Z,100027.38
2022-09-09T13:31:25.223Z,100028.75
2022-09-09T13:33:54.460Z,100024.06
2022-09-09T13:36:31.084Z,100024.88
2022-09-09T13:39:01.490Z,99988.03
2022-09-09T13:41:33.981Z,100009.53
2022-09-09T13:44:02.519Z,100009.78
2022-09-09T13:46:36.063Z,100014.75
2022-09-09T13:49:23.079Z,99994.19
2022-09-09T13:51:54.869Z,99993.06
2022-09-09T13:54:23.814Z,99978.81
2022-09-09T13:56:52.223Z,99977.94
2022-09-09T13:59:22.327Z,99988.41
2022-09-09T14:01:53.405Z,99983.16
2022-09-09T14:04:22.830Z,99988.41
2022-09-09T14:06:51.884Z,99991.97
2022-09-09T14:09:20.436Z,99995.50
2022-09-09T14:11:48.339Z,99994.53
2022-09-09T14:14:16.147Z,100000.78
2022-09-09T14:16:44.074Z,100002.16
2022-09-09T14:19:12.871Z,100011.78
2022-09-09T14:21:42.083Z,100009.66
2022-09-09T14:24:09.924Z,99996.75
2022-09-09T14:26:38.070Z,100006.84
2022-09-09T14:29:05.940Z,100013.75
2022-09-09T14:31:33.806Z,99996.19
2022-09-09T14:34:01.665Z,100005.81
2022-09-09T14:36:29.512Z,99989.09
2022-09-09T14:38:59.495Z,99995.44
2022-09-09T14:41:27.309Z,99974.22
2022-09-09T14:43:55.105Z,99981.91
2022-09-09T14:46:23.103Z,99980.31
2022-09-09T14:48:51.248Z,99972.66
2022-09-09T14:51:21.489Z,99969.56
2022-09-09T14:53:49.519Z,99964.59
2022-09-09T14:56:22.116Z,99964.69
2022-09-09T14:58:49.966Z,99962.91
2022-09-09T15:01:19.814Z,99947.56
2022-09-09T15:03:51.535Z,99951.28
2022-09-09T15:06:20.075Z,99945.59
2022-09-09T15:08:48.819Z,99940.03
2022-09-09T15:11:18.117Z,99952.72
2022-09-09T15:13:46.422Z,99955.97
2022-09-09T15:16:16.596Z,99944.25
2022-09-09T15:18:45.905Z,99955.88
2022-09-09T15:21:15.157Z,99964.03
2022-09-09T15:23:43.417Z,99966.31
2022-09-09T15:26:11.911Z,99964.47
2022-09-09T15:28:41.246Z,99957.25
2022-09-09T15:31:11.839Z,99947.81
2022-09-09T15:33:40.033Z,99965.75
2022-09-09T15:36:15.925Z,99969.44
2022-09-09T15:38:44.885Z,99955.19
2022-09-09T15:41:13.322Z,99949.31
2022-09-09T15:43:45.846Z,99962.16
2022-09-09T15:46:31.739Z,99963.53
2022-09-09T15:49:05.048Z,99961.75
2022-09-09T15:51:48.203Z,99964.13
2022-09-09T15:54:18.823Z,99968.91
2022-09-09T15:56:47.491Z,99970.34
2022-09-09T15:59:17.043Z,99978.81
2022-09-09T16:01:45.289Z,99978.28
2022-09-09T16:04:13.365Z,99976.44
2022-09-09T16:06:41.261Z,99966.88
2022-09-09T16:09:11.030Z,99985.81
2022-09-09T16:11:40.306Z,99987.75
2022-09-09T16:14:08.466Z,99983.34
2022-09-09T16:16:37.778Z,99986.34
2022-09-09T16:19:08.146Z,99994.28
2022-09-09T16:21:38.578Z,99974.19
2022-09-09T16:24:11.443Z,99994.56
2022-09-09T16:26:41.484Z,99978.44
2022-09-09T16:29:10.424Z,99976.50
2022-09-09T16:31:41.508Z,99983.88
2022-09-09T16:34:09.485Z,99969.91
2022-09-09T16:36:39.906Z,99986.06
2022-09-09T16:39:10.244Z,99980.66
2022-09-09T16:41:39.620Z,99951.00
2022-09-09T16:44:09.093Z,99974.06
2022-09-09T16:46:41.295Z,99981.78
2022-09-09T16:49:11.621Z,99985.59
2022-09-09T16:51:41.205Z,99979.69
2022-09-09T16:54:10.955Z,99987.34
2022-09-09T16:56:42.100Z,99974.19
2022-09-09T16:59:12.905Z,99989.31
2022-09-09T17:01:44.301Z,99982.47
2022-09-09T17:04:14.134Z,99989.63
2022-09-09T17:06:42.496Z,99986.31
2022-09-09T17:09:13.837Z,99997.06
2022-09-09T17:11:42.358Z,99994.06
2022-09-09T17:14:13.212Z,99999.88
2022-09-09T17:16:42.605Z,99998.78
2022-09-09T17:19:11.857Z,100012.53
2022-09-09T17:21:54.989Z,100006.75
2022-09-09T17:24:30.166Z,100019.41
2022-09-09T17:26:58.911Z,99998.28
2022-09-09T17:29:27.099Z,100010.91
2022-09-09T17:31:57.509Z,100024.66
2022-09-09T17:34:26.281Z,100019.44
2022-09-09T17:36:54.111Z,100021.09
2022-09-09T17:39:22.070Z,100027.41
2022-09-09T17:41:50.619Z,100021.91
2022-09-09T17:44:20.204Z,100011.47
2022-09-09T17:46:48.670Z,100018.31
2022-09-09T17:49:19.360Z,100020.81
2022-09-09T17:51:47.852Z,100022.19
2022-09-09T17:54:18.372Z,100029.88
2022-09-09T17:56:47.912Z,100023.28
2022-09-09T17:59:18.517Z,100025.50
2022-09-09T18:01:49.292Z,100022.47
2022-09-09T18:04:20.401Z,100029.31
2022-09-09T18:06:50.616Z,100033.72
2022-09-09T18:09:20.634Z,100029.88
2022-09-09T18:11:53.582Z,100041.13
2022-09-09T18:14:24.677Z,100050.72
2022-09-09T18:16:53.279Z,100054.84
2022-09-09T18:19:24.263Z,100055.94
2022-09-09T18:21:52.847Z,100049.84
2022-09-09T18:24:22.277Z,100057.28
2022-09-09T18:26:51.345Z,100064.09
2022-09-09T18:29:21.493Z,100067.66
2022-09-09T18:31:50.037Z,100066.84
2022-09-09T18:34:19.796Z,100069.84
2022-09-09T18:36:53.699Z,100064.03
2022-09-09T18:39:27.525Z,100070.69
2022-09-09T18:41:59.378Z,100071.50
2022-09-09T18:44:30.145Z,100070.31
2022-09-09T18:46:58.224Z,100077.72
2022-09-09T18:49:26.440Z,100087.59
2022-09-09T18:51:56.486Z,100093.13
2022-09-09T18:54:26.418Z,100099.94
2022-09-09T18:56:55.277Z,100100.47
2022-09-09T18:59:24.788Z,100112.53
2022-09-09T19:01:54.323Z,100111.69
2022-09-09T19:04:23.547Z,100111.63
2022-09-09T19:06:57.538Z,100108.38
2022-09-09T19:09:31.051Z,100119.34
2022-09-09T19:11:59.800Z,100113.81
2022-09-09T19:14:28.124Z,100128.59
2022-09-09T19:16:56.455Z,100129.44
2022-09-09T19:19:26.599Z,100131.03
2022-09-09T19:21:57.498Z,100133.94
2022-09-09T19:24:28.817Z,100140.06
2022-09-09T19:27:00.457Z,100133.41
2022-09-09T19:29:30.117Z,100131.44
2022-09-09T19:34:48.309Z,100140.97
2022-09-09T19:37:18.657Z,100136.50
2022-09-09T19:39:49.338Z,100140.56
2022-09-09T19:42:17.580Z,100142.22
2022-09-09T19:44:45.401Z,100143.41
2022-09-09T19:47:14.871Z,100145.56
2022-09-09T19:49:46.762Z,100144.94
2022-09-09T19:52:15.908Z,100144.31
2022-09-09T19:54:43.976Z,100142.34
2022-09-09T19:57:13.816Z,100149.41
2022-09-09T19:59:41.626Z,100141.94
2022-09-09T20:02:13.351Z,100139.72
2022-09-09T20:04:41.190Z,100145.91
2022-09-09T20:07:09.487Z,100143.16
2022-09-09T20:09:37.381Z,100141.28
2022-09-09T20:12:05.827Z,100120.78
2022-09-09T20:14:39.380Z,100147.19
2022-09-09T20:17:09.277Z,100139.47
2022-09-09T20:19:37.375Z,100143.03
2022-09-09T20:22:05.378Z,100147.63
2022-09-09T20:24:33.353Z,100143.50
2022-09-09T20:27:01.173Z,100142.41
2022-09-09T20:29:29.092Z,100138.81
2022-09-09T20:31:58.674Z,100139.06
2022-09-09T20:34:28.168Z,100120.97
2022-09-09T20:36:59.011Z,100132.25
2022-09-09T20:39:27.939Z,100117.75
2022-09-09T20:41:57.145Z,100127.59
2022-09-09T20:44:25.398Z,100120.53
2022-09-09T20:46:57.005Z,100137.72
2022-09-09T20:49:26.351Z,100134.88
2022-09-09T20:51:55.073Z,100136.38
2022-09-09T20:54:24.620Z,100149.72
2022-09-09T20:56:54.585Z,100134.00
2022-09-09T20:59:24.493Z,100134.00
2022-09-09T21:01:53.033Z,100136.41
2022-09-09T21:04:22.924Z,100133.59
2022-09-09T21:06:53.065Z,100133.59
2022-09-09T21:09:23.126Z,100147.03
2022-09-09T21:11:51.095Z,100137.41
2022-09-09T21:14:18.868Z,100148.19
2022-09-09T21:16:46.841Z,100154.16
2022-09-09T21:19:14.669Z,100154.34
2022-09-09T21:21:42.605Z,100144.09
2022-09-09T21:24:12.282Z,100148.47
2022-09-09T21:26:40.281Z,100145.06
2022-09-09T21:29:08.677Z,100156.00
2022-09-09T21:31:37.374Z,100157.50
2022-09-09T21:34:05.404Z,100158.44
2022-09-09T21:36:33.693Z,100168.28
2022-09-09T21:39:01.539Z,100174.81
2022-09-09T21:41:30.932Z,100174.88
2022-09-09T21:43:58.974Z,100170.78
2022-09-09T21:46:28.132Z,100171.91
2022-09-09T21:48:56.948Z,100177.31
2022-09-09T21:51:25.451Z,100179.13
2022-09-09T21:53:58.058Z,100173.41
2022-09-09T21:56:26.666Z,100179.88
2022-09-09T21:59:03.881Z,100173.34
2022-09-09T22:01:33.114Z,100173.91
2022-09-09T22:04:01.495Z,100188.72
2022-09-09T22:06:29.467Z,100172.28
2022-09-09T22:08:59.131Z,100176.72
2022-09-09T22:11:28.118Z,100174.66
2022-09-09T22:13:56.124Z,100179.28
2022-09-09T22:16:25.524Z,100184.19
2022-09-09T22:18:56.743Z,100185.78
2022-09-09T22:21:26.005Z,100184.53
2022-09-09T22:23:55.174Z,100181.53
2022-09-09T22:26:23.023Z,100183.69
2022-09-09T22:28:51.744Z,100175.41
2022-09-09T22:31:20.851Z,100177.97
2022-09-09T22:33:50.534Z,100176.91
2022-09-09T22:36:19.794Z,100176.31
2022-09-09T22:38:47.640Z,100172.84
2022-09-09T22:41:17.081Z,100179.47
2022-09-09T22:43:45.980Z,100176.81
2022-09-09T22:46:14.358Z,100167.31
2022-09-09T22:48:43.155Z,100177.47
2022-09-09T22:51:14.058Z,100172.53
2022-09-09T22:53:44.563Z,100178.88
2022-09-09T22:56:15.667Z,100174.59
2022-09-09T22:58:43.965Z,100156.38
2022-09-09T23:01:14.021Z,100169.53
2022-09-09T23:03:46.468Z,100162.16
2022-09-09T23:06:21.727Z,100161.03
2022-09-09T23:08:55.793Z,100159.28
2022-09-09T23:11:26.326Z,100166.13
2022-09-09T23:13:56.214Z,100174.56
2022-09-09T23:16:25.760Z,100176.16
2022-09-09T23:18:55.382Z,100166.13
2022-09-09T23:21:28.123Z,100180.31
2022-09-09T23:23:57.735Z,100180.38
2022-09-09T23:26:28.793Z,100181.78
2022-09-09T23:28:58.458Z,100181.28
2022-09-09T23:31:29.380Z,100175.00
2022-09-09T23:33:58.150Z,100182.69
2022-09-09T23:36:29.542Z,100161.84
2022-09-09T23:39:01.995Z,100178.13
2022-09-09T23:41:30.800Z,100183.75
2022-09-09T23:43:59.208Z,100178.41
2022-09-09T23:46:29.494Z,100183.19
2022-09-09T23:48:58.390Z,100175.31
2022-09-09T23:51:30.487Z,100181.94
2022-09-09T23:54:00.373Z,100169.84
2022-09-09T23:56:31.189Z,100182.34
2022-09-09T23:58:59.295Z,100173.75
